sensor_id;sensor_type;location;lat;lon;timestamp;P1;durP1;ratioP1;P2;durP2;ratioP2
74241;SDS011;62599;49.146;10.426;2023-02-21T00:01:26;8.18;;;2.25;;
74241;SDS011;62599;49.146;10.426;2023-02-21T00:04:10;3.90;;;0.57;;
74241;SDS011;62599;49.146;10.426;2023-02-21T00:06:54;4.15;;;1.05;;
74241;SDS011;62599;49.146;10.426;2023-02-21T00:09:38;2.25;;;1.10;;
74241;SDS011;62599;49.146;10.426;2023-02-21T00:12:22;1.63;;;0.93;;
74241;SDS011;62599;49.146;10.426;2023-02-21T00:15:06;11.45;;;1.20;;
74241;SDS011;62599;49.146;10.426;2023-02-21T00:17:50;6.72;;;1.10;;
74241;SDS011;62599;49.146;10.426;2023-02-21T00:20:34;3.80;;;1.05;;
74241;SDS011;62599;49.146;10.426;2023-02-21T00:26:02;5.28;;;0.85;;
74241;SDS011;62599;49.146;10.426;2023-02-21T00:28:46;1.58;;;1.17;;
74241;SDS011;62599;49.146;10.426;2023-02-21T00:31:30;1.20;;;0.73;;
74241;SDS011;62599;49.146;10.426;2023-02-21T00:34:14;0.98;;;0.45;;
74241;SDS011;62599;49.146;10.426;2023-02-21T00:36:58;1.98;;;0.90;;
74241;SDS011;62599;49.146;10.426;2023-02-21T00:39:42;1.63;;;0.52;;
74241;SDS011;62599;49.146;10.426;2023-02-21T00:42:26;2.22;;;0.70;;
74241;SDS011;62599;49.146;10.426;2023-02-21T00:47:54;1.35;;;0.55;;
74241;SDS011;62599;49.146;10.426;2023-02-21T00:50:38;4.63;;;0.93;;
74241;SDS011;62599;49.146;10.426;2023-02-21T00:53:25;1.13;;;0.88;;
74241;SDS011;62599;49.146;10.426;2023-02-21T00:56:09;4.13;;;0.98;;
74241;SDS011;62599;49.146;10.426;2023-02-21T00:58:53;2.45;;;0.82;;
74241;SDS011;62599;49.146;10.426;2023-02-21T01:01:37;2.67;;;0.88;;
74241;SDS011;62599;49.146;10.426;2023-02-21T01:04:21;1.70;;;1.00;;
74241;SDS011;62599;49.146;10.426;2023-02-21T01:07:05;2.05;;;1.60;;
74241;SDS011;62599;49.146;10.426;2023-02-21T01:09:49;2.38;;;1.33;;
74241;SDS011;62599;49.146;10.426;2023-02-21T01:12:33;6.20;;;1.08;;
74241;SDS011;62599;49.146;10.426;2023-02-21T01:15:17;1.52;;;0.65;;
74241;SDS011;62599;49.146;10.426;2023-02-21T01:18:01;2.20;;;0.80;;
74241;SDS011;62599;49.146;10.426;2023-02-21T01:20:45;1.90;;;1.15;;
74241;SDS011;62599;49.146;10.426;2023-02-21T01:23:29;1.25;;;0.80;;
74241;SDS011;62599;49.146;10.426;2023-02-21T01:26:18;3.25;;;1.10;;
74241;SDS011;62599;49.146;10.426;2023-02-21T01:29:02;4.88;;;0.90;;
74241;SDS011;62599;49.146;10.426;2023-02-21T01:31:47;6.00;;;1.77;;
74241;SDS011;62599;49.146;10.426;2023-02-21T01:34:32;2.55;;;1.08;;
74241;SDS011;62599;49.146;10.426;2023-02-21T01:37:16;2.90;;;1.23;;
74241;SDS011;62599;49.146;10.426;2023-02-21T01:40:01;0.98;;;0.77;;
74241;SDS011;62599;49.146;10.426;2023-02-21T01:42:45;0.85;;;0.63;;
74241;SDS011;62599;49.146;10.426;2023-02-21T01:48:19;2.28;;;1.30;;
74241;SDS011;62599;49.146;10.426;2023-02-21T01:51:05;0.70;;;0.45;;
74241;SDS011;62599;49.146;10.426;2023-02-21T01:53:52;2.80;;;1.45;;
74241;SDS011;62599;49.146;10.426;2023-02-21T01:56:38;4.35;;;1.27;;
74241;SDS011;62599;49.146;10.426;2023-02-21T01:59:23;3.28;;;0.52;;
74241;SDS011;62599;49.146;10.426;2023-02-21T02:02:23;7.50;;;1.25;;
74241;SDS011;62599;49.146;10.426;2023-02-21T02:05:08;0.88;;;0.63;;
74241;SDS011;62599;49.146;10.426;2023-02-21T02:07:54;1.73;;;1.00;;
74241;SDS011;62599;49.146;10.426;2023-02-21T02:10:38;5.00;;;0.75;;
74241;SDS011;62599;49.146;10.426;2023-02-21T02:27:06;6.13;;;1.00;;
74241;SDS011;62599;49.146;10.426;2023-02-21T02:32:49;2.83;;;1.40;;
74241;SDS011;62599;49.146;10.426;2023-02-21T02:35:31;1.00;;;0.57;;
74241;SDS011;62599;49.146;10.426;2023-02-21T02:45:55;0.95;;;0.63;;
74241;SDS011;62599;49.146;10.426;2023-02-21T02:48:33;2.33;;;1.25;;
74241;SDS011;62599;49.146;10.426;2023-02-21T02:51:01;1.15;;;0.63;;
74241;SDS011;62599;49.146;10.426;2023-02-21T02:53:30;2.85;;;0.77;;
74241;SDS011;62599;49.146;10.426;2023-02-21T02:55:59;1.63;;;0.77;;
74241;SDS011;62599;49.146;10.426;2023-02-21T02:58:27;3.22;;;1.17;;
74241;SDS011;62599;49.146;10.426;2023-02-21T03:06:53;10.32;;;1.00;;
74241;SDS011;62599;49.146;10.426;2023-02-21T03:09:36;3.13;;;0.63;;
74241;SDS011;62599;49.146;10.426;2023-02-21T03:15:24;3.20;;;0.95;;
74241;SDS011;62599;49.146;10.426;2023-02-21T03:18:30;2.25;;;1.05;;
74241;SDS011;62599;49.146;10.426;2023-02-21T03:20:56;7.72;;;1.88;;
74241;SDS011;62599;49.146;10.426;2023-02-21T03:23:25;2.25;;;1.30;;
74241;SDS011;62599;49.146;10.426;2023-02-21T03:25:53;3.53;;;1.40;;
74241;SDS011;62599;49.146;10.426;2023-02-21T03:28:21;0.93;;;0.65;;
74241;SDS011;62599;49.146;10.426;2023-02-21T03:30:50;3.00;;;1.15;;
74241;SDS011;62599;49.146;10.426;2023-02-21T03:33:18;3.22;;;1.42;;
74241;SDS011;62599;49.146;10.426;2023-02-21T03:35:44;3.05;;;0.90;;
74241;SDS011;62599;49.146;10.426;2023-02-21T03:38:09;1.88;;;1.25;;
74241;SDS011;62599;49.146;10.426;2023-02-21T03:40:35;1.30;;;1.13;;
74241;SDS011;62599;49.146;10.426;2023-02-21T03:43:03;7.95;;;1.25;;
74241;SDS011;62599;49.146;10.426;2023-02-21T03:45:33;1.67;;;0.88;;
74241;SDS011;62599;49.146;10.426;2023-02-21T03:47:59;1.38;;;0.98;;
74241;SDS011;62599;49.146;10.426;2023-02-21T03:53:46;2.53;;;1.17;;
74241;SDS011;62599;49.146;10.426;2023-02-21T03:56:12;0.90;;;0.70;;
74241;SDS011;62599;49.146;10.426;2023-02-21T03:58:37;3.38;;;1.42;;
74241;SDS011;62599;49.146;10.426;2023-02-21T04:01:02;1.10;;;1.00;;
74241;SDS011;62599;49.146;10.426;2023-02-21T04:03:28;0.85;;;0.70;;
74241;SDS011;62599;49.146;10.426;2023-02-21T04:05:54;1.95;;;0.82;;
74241;SDS011;62599;49.146;10.426;2023-02-21T04:08:20;2.47;;;1.00;;
74241;SDS011;62599;49.146;10.426;2023-02-21T04:10:45;2.13;;;0.88;;
74241;SDS011;62599;49.146;10.426;2023-02-21T04:13:10;2.00;;;1.20;;
74241;SDS011;62599;49.146;10.426;2023-02-21T04:15:36;2.57;;;1.37;;
74241;SDS011;62599;49.146;10.426;2023-02-21T04:18:01;1.37;;;0.70;;
74241;SDS011;62599;49.146;10.426;2023-02-21T04:20:26;2.83;;;1.40;;
74241;SDS011;62599;49.146;10.426;2023-02-21T04:22:52;1.52;;;0.95;;
74241;SDS011;62599;49.146;10.426;2023-02-21T04:25:17;1.50;;;0.70;;
74241;SDS011;62599;49.146;10.426;2023-02-21T04:27:43;3.33;;;0.95;;
74241;SDS011;62599;49.146;10.426;2023-02-21T04:30:08;2.23;;;1.10;;
74241;SDS011;62599;49.146;10.426;2023-02-21T04:32:34;2.10;;;1.45;;
74241;SDS011;62599;49.146;10.426;2023-02-21T04:35:00;1.80;;;1.00;;
74241;SDS011;62599;49.146;10.426;2023-02-21T04:37:25;3.20;;;1.30;;
74241;SDS011;62599;49.146;10.426;2023-02-21T04:39:50;0.90;;;0.80;;
74241;SDS011;62599;49.146;10.426;2023-02-21T04:42:16;1.97;;;0.90;;
74241;SDS011;62599;49.146;10.426;2023-02-21T04:44:41;1.60;;;1.07;;
74241;SDS011;62599;49.146;10.426;2023-02-21T04:47:06;2.03;;;1.20;;
74241;SDS011;62599;49.146;10.426;2023-02-21T04:49:32;1.08;;;0.63;;
74241;SDS011;62599;49.146;10.426;2023-02-21T04:51:57;2.00;;;0.73;;
74241;SDS011;62599;49.146;10.426;2023-02-21T04:54:23;1.80;;;1.63;;
74241;SDS011;62599;49.146;10.426;2023-02-21T04:56:48;1.13;;;0.43;;
74241;SDS011;62599;49.146;10.426;2023-02-21T04:59:13;1.60;;;0.63;;
74241;SDS011;62599;49.146;10.426;2023-02-21T05:01:39;1.65;;;0.68;;
74241;SDS011;62599;49.146;10.426;2023-02-21T05:04:04;1.85;;;0.80;;
74241;SDS011;62599;49.146;10.426;2023-02-21T05:06:30;2.60;;;1.27;;
74241;SDS011;62599;49.146;10.426;2023-02-21T05:08:56;4.80;;;1.13;;
74241;SDS011;62599;49.146;10.426;2023-02-21T05:11:22;2.83;;;0.63;;
74241;SDS011;62599;49.146;10.426;2023-02-21T05:13:49;2.00;;;1.25;;
74241;SDS011;62599;49.146;10.426;2023-02-21T05:16:15;2.13;;;1.02;;
74241;SDS011;62599;49.146;10.426;2023-02-21T05:18:41;2.75;;;1.08;;
74241;SDS011;62599;49.146;10.426;2023-02-21T05:21:07;0.93;;;0.70;;
74241;SDS011;62599;49.146;10.426;2023-02-21T05:23:33;2.83;;;0.47;;
74241;SDS011;62599;49.146;10.426;2023-02-21T05:26:01;1.52;;;0.93;;
74241;SDS011;62599;49.146;10.426;2023-02-21T05:28:29;0.55;;;0.40;;
74241;SDS011;62599;49.146;10.426;2023-02-21T05:30:54;2.53;;;1.20;;
74241;SDS011;62599;49.146;10.426;2023-02-21T05:33:19;0.38;;;0.38;;
74241;SDS011;62599;49.146;10.426;2023-02-21T05:35:45;7.47;;;1.92;;
74241;SDS011;62599;49.146;10.426;2023-02-21T05:38:12;1.80;;;1.40;;
74241;SDS011;62599;49.146;10.426;2023-02-21T05:40:37;1.83;;;1.05;;
74241;SDS011;62599;49.146;10.426;2023-02-21T05:43:03;3.15;;;1.30;;
74241;SDS011;62599;49.146;10.426;2023-02-21T05:45:28;1.33;;;1.13;;
74241;SDS011;62599;49.146;10.426;2023-02-21T05:47:54;1.50;;;0.73;;
74241;SDS011;62599;49.146;10.426;2023-02-21T05:50:24;2.65;;;0.90;;
74241;SDS011;62599;49.146;10.426;2023-02-21T05:52:50;1.33;;;0.55;;
74241;SDS011;62599;49.146;10.426;2023-02-21T05:55:20;0.60;;;0.57;;
74241;SDS011;62599;49.146;10.426;2023-02-21T05:57:45;6.57;;;0.80;;
74241;SDS011;62599;49.146;10.426;2023-02-21T06:00:17;3.25;;;1.80;;
74241;SDS011;62599;49.146;10.426;2023-02-21T06:02:48;1.55;;;0.73;;
74241;SDS011;62599;49.146;10.426;2023-02-21T06:05:16;1.00;;;0.73;;
74241;SDS011;62599;49.146;10.426;2023-02-21T06:07:42;0.85;;;0.85;;
74241;SDS011;62599;49.146;10.426;2023-02-21T06:10:08;1.55;;;0.65;;
74241;SDS011;62599;49.146;10.426;2023-02-21T06:12:34;6.07;;;1.17;;
74241;SDS011;62599;49.146;10.426;2023-02-21T06:15:00;1.27;;;1.13;;
74241;SDS011;62599;49.146;10.426;2023-02-21T06:17:26;2.60;;;0.73;;
74241;SDS011;62599;49.146;10.426;2023-02-21T06:19:51;1.13;;;0.60;;
74241;SDS011;62599;49.146;10.426;2023-02-21T06:22:19;0.77;;;0.73;;
74241;SDS011;62599;49.146;10.426;2023-02-21T06:24:45;7.07;;;1.25;;
74241;SDS011;62599;49.146;10.426;2023-02-21T06:27:10;0.60;;;0.60;;
74241;SDS011;62599;49.146;10.426;2023-02-21T06:29:35;1.30;;;1.20;;
74241;SDS011;62599;49.146;10.426;2023-02-21T06:32:01;0.55;;;0.55;;
74241;SDS011;62599;49.146;10.426;2023-02-21T06:34:27;2.30;;;1.10;;
74241;SDS011;62599;49.146;10.426;2023-02-21T06:36:53;1.05;;;0.75;;
74241;SDS011;62599;49.146;10.426;2023-02-21T06:39:19;3.15;;;2.33;;
74241;SDS011;62599;49.146;10.426;2023-02-21T06:41:44;2.33;;;0.80;;
74241;SDS011;62599;49.146;10.426;2023-02-21T06:44:09;0.63;;;0.47;;
74241;SDS011;62599;49.146;10.426;2023-02-21T06:46:36;9.13;;;1.42;;
74241;SDS011;62599;49.146;10.426;2023-02-21T06:49:02;1.10;;;0.85;;
74241;SDS011;62599;49.146;10.426;2023-02-21T06:51:32;1.55;;;0.63;;
74241;SDS011;62599;49.146;10.426;2023-02-21T06:54:01;6.35;;;1.77;;
74241;SDS011;62599;49.146;10.426;2023-02-21T06:56:27;1.48;;;1.20;;
74241;SDS011;62599;49.146;10.426;2023-02-21T06:58:53;1.20;;;0.77;;
74241;SDS011;62599;49.146;10.426;2023-02-21T07:01:19;0.98;;;0.85;;
74241;SDS011;62599;49.146;10.426;2023-02-21T07:03:45;0.77;;;0.77;;
74241;SDS011;62599;49.146;10.426;2023-02-21T07:06:11;2.40;;;1.42;;
74241;SDS011;62599;49.146;10.426;2023-02-21T07:08:37;3.42;;;1.00;;
74241;SDS011;62599;49.146;10.426;2023-02-21T07:11:03;2.67;;;1.17;;
74241;SDS011;62599;49.146;10.426;2023-02-21T07:13:29;2.55;;;0.88;;
74241;SDS011;62599;49.146;10.426;2023-02-21T07:15:55;4.03;;;1.25;;
74241;SDS011;62599;49.146;10.426;2023-02-21T07:18:20;1.30;;;1.03;;
74241;SDS011;62599;49.146;10.426;2023-02-21T07:20:45;2.57;;;1.33;;
74241;SDS011;62599;49.146;10.426;2023-02-21T07:23:11;1.42;;;1.05;;
74241;SDS011;62599;49.146;10.426;2023-02-21T07:25:36;2.00;;;0.93;;
74241;SDS011;62599;49.146;10.426;2023-02-21T07:28:02;7.87;;;1.50;;
74241;SDS011;62599;49.146;10.426;2023-02-21T07:30:28;2.97;;;1.25;;
74241;SDS011;62599;49.146;10.426;2023-02-21T07:32:53;2.70;;;1.15;;
74241;SDS011;62599;49.146;10.426;2023-02-21T07:35:19;1.27;;;1.03;;
74241;SDS011;62599;49.146;10.426;2023-02-21T07:37:44;1.27;;;1.07;;
74241;SDS011;62599;49.146;10.426;2023-02-21T07:40:09;0.57;;;0.57;;
74241;SDS011;62599;49.146;10.426;2023-02-21T07:42:35;2.55;;;1.83;;
74241;SDS011;62599;49.146;10.426;2023-02-21T07:45:01;1.47;;;1.20;;
74241;SDS011;62599;49.146;10.426;2023-02-21T07:47:27;2.85;;;1.98;;
74241;SDS011;62599;49.146;10.426;2023-02-21T07:49:56;3.65;;;1.70;;
74241;SDS011;62599;49.146;10.426;2023-02-21T07:52:21;4.75;;;2.50;;
74241;SDS011;62599;49.146;10.426;2023-02-21T07:54:47;3.00;;;1.75;;
74241;SDS011;62599;49.146;10.426;2023-02-21T07:57:12;4.03;;;2.47;;
74241;SDS011;62599;49.146;10.426;2023-02-21T07:59:40;3.83;;;2.00;;
74241;SDS011;62599;49.146;10.426;2023-02-21T08:02:06;0.55;;;0.47;;
74241;SDS011;62599;49.146;10.426;2023-02-21T08:04:31;1.23;;;0.85;;
74241;SDS011;62599;49.146;10.426;2023-02-21T08:07:00;3.15;;;1.65;;
74241;SDS011;62599;49.146;10.426;2023-02-21T08:09:27;8.10;;;2.60;;
74241;SDS011;62599;49.146;10.426;2023-02-21T08:11:52;3.92;;;2.05;;
74241;SDS011;62599;49.146;10.426;2023-02-21T08:14:18;1.90;;;1.70;;
74241;SDS011;62599;49.146;10.426;2023-02-21T08:16:43;9.43;;;2.10;;
74241;SDS011;62599;49.146;10.426;2023-02-21T08:19:09;3.47;;;1.83;;
74241;SDS011;62599;49.146;10.426;2023-02-21T08:21:34;4.47;;;1.80;;
74241;SDS011;62599;49.146;10.426;2023-02-21T08:24:00;3.95;;;1.70;;
74241;SDS011;62599;49.146;10.426;2023-02-21T08:26:25;3.08;;;1.67;;
74241;SDS011;62599;49.146;10.426;2023-02-21T08:28:51;2.17;;;1.13;;
74241;SDS011;62599;49.146;10.426;2023-02-21T08:31:16;2.50;;;1.60;;
74241;SDS011;62599;49.146;10.426;2023-02-21T08:33:42;4.32;;;2.50;;
74241;SDS011;62599;49.146;10.426;2023-02-21T08:36:08;10.45;;;4.00;;
74241;SDS011;62599;49.146;10.426;2023-02-21T08:38:34;5.80;;;2.72;;
74241;SDS011;62599;49.146;10.426;2023-02-21T08:40:59;4.43;;;2.38;;
74241;SDS011;62599;49.146;10.426;2023-02-21T08:43:26;5.65;;;2.83;;
74241;SDS011;62599;49.146;10.426;2023-02-21T08:45:52;8.30;;;2.63;;
74241;SDS011;62599;49.146;10.426;2023-02-21T08:48:18;6.18;;;2.20;;
74241;SDS011;62599;49.146;10.426;2023-02-21T08:50:44;10.13;;;2.57;;
74241;SDS011;62599;49.146;10.426;2023-02-21T08:53:10;5.38;;;2.22;;
74241;SDS011;62599;49.146;10.426;2023-02-21T08:55:37;3.10;;;1.77;;
74241;SDS011;62599;49.146;10.426;2023-02-21T08:58:02;3.87;;;1.57;;
74241;SDS011;62599;49.146;10.426;2023-02-21T09:00:28;4.90;;;2.30;;
74241;SDS011;62599;49.146;10.426;2023-02-21T09:03:00;1.70;;;1.27;;
74241;SDS011;62599;49.146;10.426;2023-02-21T09:05:35;2.72;;;1.52;;
74241;SDS011;62599;49.146;10.426;2023-02-21T09:08:01;3.77;;;1.90;;
74241;SDS011;62599;49.146;10.426;2023-02-21T09:10:27;11.32;;;3.35;;
74241;SDS011;62599;49.146;10.426;2023-02-21T09:12:54;10.95;;;2.78;;
74241;SDS011;62599;49.146;10.426;2023-02-21T09:15:20;9.73;;;2.80;;
74241;SDS011;62599;49.146;10.426;2023-02-21T09:17:45;7.88;;;2.00;;
74241;SDS011;62599;49.146;10.426;2023-02-21T09:20:15;3.90;;;1.92;;
74241;SDS011;62599;49.146;10.426;2023-02-21T09:22:46;8.10;;;2.13;;
74241;SDS011;62599;49.146;10.426;2023-02-21T09:25:12;3.92;;;2.05;;
74241;SDS011;62599;49.146;10.426;2023-02-21T09:27:39;8.98;;;1.83;;
74241;SDS011;62599;49.146;10.426;2023-02-21T09:30:06;6.05;;;3.33;;
74241;SDS011;62599;49.146;10.426;2023-02-21T09:32:39;3.03;;;1.70;;
74241;SDS011;62599;49.146;10.426;2023-02-21T09:35:06;11.95;;;2.38;;
74241;SDS011;62599;49.146;10.426;2023-02-21T09:37:38;5.30;;;3.20;;
74241;SDS011;62599;49.146;10.426;2023-02-21T09:40:14;5.38;;;2.00;;
74241;SDS011;62599;49.146;10.426;2023-02-21T09:42:40;8.32;;;3.10;;
74241;SDS011;62599;49.146;10.426;2023-02-21T09:45:09;5.25;;;2.22;;
74241;SDS011;62599;49.146;10.426;2023-02-21T09:47:43;6.53;;;2.83;;
74241;SDS011;62599;49.146;10.426;2023-02-21T09:50:17;5.03;;;1.80;;
74241;SDS011;62599;49.146;10.426;2023-02-21T09:52:50;5.28;;;2.00;;
74241;SDS011;62599;49.146;10.426;2023-02-21T09:55:33;8.65;;;2.97;;
74241;SDS011;62599;49.146;10.426;2023-02-21T09:58:04;5.10;;;2.90;;
74241;SDS011;62599;49.146;10.426;2023-02-21T10:00:35;7.43;;;3.53;;
74241;SDS011;62599;49.146;10.426;2023-02-21T10:03:13;4.63;;;1.95;;
74241;SDS011;62599;49.146;10.426;2023-02-21T10:05:56;7.95;;;2.42;;
74241;SDS011;62599;49.146;10.426;2023-02-21T10:08:35;2.90;;;1.38;;
74241;SDS011;62599;49.146;10.426;2023-02-21T10:11:16;5.57;;;2.17;;
74241;SDS011;62599;49.146;10.426;2023-02-21T10:13:51;5.72;;;2.88;;
74241;SDS011;62599;49.146;10.426;2023-02-21T10:16:27;2.53;;;1.67;;
74241;SDS011;62599;49.146;10.426;2023-02-21T10:21:59;5.85;;;2.15;;
74241;SDS011;62599;49.146;10.426;2023-02-21T10:24:28;6.13;;;2.00;;
74241;SDS011;62599;49.146;10.426;2023-02-21T10:27:02;3.53;;;2.00;;
74241;SDS011;62599;49.146;10.426;2023-02-21T10:32:07;4.43;;;1.85;;
74241;SDS011;62599;49.146;10.426;2023-02-21T10:34:33;2.97;;;1.88;;
74241;SDS011;62599;49.146;10.426;2023-02-21T10:37:09;2.85;;;1.25;;
74241;SDS011;62599;49.146;10.426;2023-02-21T10:39:48;2.97;;;1.67;;
74241;SDS011;62599;49.146;10.426;2023-02-21T10:45:07;2.88;;;1.75;;
74241;SDS011;62599;49.146;10.426;2023-02-21T10:50:42;2.63;;;1.38;;
74241;SDS011;62599;49.146;10.426;2023-02-21T10:53:21;1.88;;;1.40;;
74241;SDS011;62599;49.146;10.426;2023-02-21T11:01:34;2.75;;;0.98;;
74241;SDS011;62599;49.146;10.426;2023-02-21T11:06:55;1.85;;;1.42;;
74241;SDS011;62599;49.146;10.426;2023-02-21T11:20:18;3.15;;;1.45;;
74241;SDS011;62599;49.146;10.426;2023-02-21T11:22:48;3.45;;;2.28;;
74241;SDS011;62599;49.146;10.426;2023-02-21T11:31:04;2.85;;;1.45;;
74241;SDS011;62599;49.146;10.426;2023-02-21T11:34:05;1.73;;;0.93;;
74241;SDS011;62599;49.146;10.426;2023-02-21T11:36:34;3.72;;;1.15;;
74241;SDS011;62599;49.146;10.426;2023-02-21T11:39:17;7.35;;;1.95;;
74241;SDS011;62599;49.146;10.426;2023-02-21T11:41:57;1.80;;;1.10;;
74241;SDS011;62599;49.146;10.426;2023-02-21T11:50:26;2.00;;;1.42;;
74241;SDS011;62599;49.146;10.426;2023-02-21T11:52:58;1.15;;;0.70;;
74241;SDS011;62599;49.146;10.426;2023-02-21T11:55:30;3.28;;;1.17;;
74241;SDS011;62599;49.146;10.426;2023-02-21T11:58:17;2.33;;;1.13;;
74241;SDS011;62599;49.146;10.426;2023-02-21T12:01:15;1.40;;;0.90;;
74241;SDS011;62599;49.146;10.426;2023-02-21T12:12:14;2.75;;;1.42;;
74241;SDS011;62599;49.146;10.426;2023-02-21T12:15:12;5.55;;;2.45;;
74241;SDS011;62599;49.146;10.426;2023-02-21T12:23:25;2.15;;;1.08;;
74241;SDS011;62599;49.146;10.426;2023-02-21T12:26:06;2.35;;;1.50;;
74241;SDS011;62599;49.146;10.426;2023-02-21T12:28:58;1.58;;;1.30;;
74241;SDS011;62599;49.146;10.426;2023-02-21T12:34:24;2.97;;;2.42;;
74241;SDS011;62599;49.146;10.426;2023-02-21T12:40:15;2.20;;;1.25;;
74241;SDS011;62599;49.146;10.426;2023-02-21T12:45:25;2.15;;;1.85;;
74241;SDS011;62599;49.146;10.426;2023-02-21T12:48:09;1.85;;;1.15;;
74241;SDS011;62599;49.146;10.426;2023-02-21T12:50:42;2.13;;;1.48;;
74241;SDS011;62599;49.146;10.426;2023-02-21T12:56:06;3.10;;;1.80;;
74241;SDS011;62599;49.146;10.426;2023-02-21T13:11:40;2.55;;;1.52;;
74241;SDS011;62599;49.146;10.426;2023-02-21T13:14:36;1.55;;;0.90;;
74241;SDS011;62599;49.146;10.426;2023-02-21T13:17:11;2.13;;;1.33;;
74241;SDS011;62599;49.146;10.426;2023-02-21T13:28:35;2.33;;;1.00;;
74241;SDS011;62599;49.146;10.426;2023-02-21T13:31:03;2.65;;;1.42;;
74241;SDS011;62599;49.146;10.426;2023-02-21T13:33:35;1.52;;;1.10;;
74241;SDS011;62599;49.146;10.426;2023-02-21T13:36:13;2.40;;;1.90;;
74241;SDS011;62599;49.146;10.426;2023-02-21T13:38:59;2.28;;;1.33;;
74241;SDS011;62599;49.146;10.426;2023-02-21T13:41:26;2.65;;;1.10;;
74241;SDS011;62599;49.146;10.426;2023-02-21T13:43:54;2.00;;;1.27;;
74241;SDS011;62599;49.146;10.426;2023-02-21T13:51:52;2.10;;;1.08;;
74241;SDS011;62599;49.146;10.426;2023-02-21T13:54:37;3.10;;;0.88;;
74241;SDS011;62599;49.146;10.426;2023-02-21T14:00:51;1.60;;;0.57;;
74241;SDS011;62599;49.146;10.426;2023-02-21T14:08:14;1.13;;;1.02;;
74241;SDS011;62599;49.146;10.426;2023-02-21T14:10:51;2.42;;;1.10;;
74241;SDS011;62599;49.146;10.426;2023-02-21T14:16:08;1.23;;;1.13;;
74241;SDS011;62599;49.146;10.426;2023-02-21T14:23:49;1.10;;;0.63;;
74241;SDS011;62599;49.146;10.426;2023-02-21T14:26:44;1.60;;;1.08;;
74241;SDS011;62599;49.146;10.426;2023-02-21T14:34:39;1.77;;;1.15;;
74241;SDS011;62599;49.146;10.426;2023-02-21T14:39:56;2.85;;;1.10;;
74241;SDS011;62599;49.146;10.426;2023-02-21T14:47:54;2.47;;;1.25;;
74241;SDS011;62599;49.146;10.426;2023-02-21T14:59:58;1.48;;;1.08;;
74241;SDS011;62599;49.146;10.426;2023-02-21T15:02:34;1.98;;;1.55;;
74241;SDS011;62599;49.146;10.426;2023-02-21T15:08:11;4.00;;;1.15;;
74241;SDS011;62599;49.146;10.426;2023-02-21T15:10:46;3.42;;;1.27;;
74241;SDS011;62599;49.146;10.426;2023-02-21T15:15:58;3.80;;;1.40;;
74241;SDS011;62599;49.146;10.426;2023-02-21T15:23:34;2.80;;;1.30;;
74241;SDS011;62599;49.146;10.426;2023-02-21T15:26:13;1.60;;;0.93;;
74241;SDS011;62599;49.146;10.426;2023-02-21T15:28:40;1.65;;;1.17;;
74241;SDS011;62599;49.146;10.426;2023-02-21T15:31:06;2.27;;;0.80;;
74241;SDS011;62599;49.146;10.426;2023-02-21T15:33:34;2.38;;;1.23;;
74241;SDS011;62599;49.146;10.426;2023-02-21T15:36:08;2.40;;;1.15;;
74241;SDS011;62599;49.146;10.426;2023-02-21T15:38:54;1.27;;;1.15;;
74241;SDS011;62599;49.146;10.426;2023-02-21T15:41:31;2.72;;;1.02;;
74241;SDS011;62599;49.146;10.426;2023-02-21T15:46:32;2.88;;;0.88;;
74241;SDS011;62599;49.146;10.426;2023-02-21T15:49:05;3.13;;;0.80;;
74241;SDS011;62599;49.146;10.426;2023-02-21T15:51:31;3.10;;;1.10;;
74241;SDS011;62599;49.146;10.426;2023-02-21T15:56:59;3.05;;;0.88;;
74241;SDS011;62599;49.146;10.426;2023-02-21T15:59:26;1.42;;;0.73;;
74241;SDS011;62599;49.146;10.426;2023-02-21T16:04:51;2.88;;;1.27;;
74241;SDS011;62599;49.146;10.426;2023-02-21T16:07:22;2.03;;;1.13;;
74241;SDS011;62599;49.146;10.426;2023-02-21T16:10:00;3.45;;;0.50;;
74241;SDS011;62599;49.146;10.426;2023-02-21T16:12:43;3.03;;;0.85;;
74241;SDS011;62599;49.146;10.426;2023-02-21T16:15:28;1.65;;;0.88;;
74241;SDS011;62599;49.146;10.426;2023-02-21T16:17:57;4.03;;;0.95;;
74241;SDS011;62599;49.146;10.426;2023-02-21T16:20:26;4.50;;;1.40;;
74241;SDS011;62599;49.146;10.426;2023-02-21T16:28:32;3.08;;;1.50;;
74241;SDS011;62599;49.146;10.426;2023-02-21T16:30:58;3.72;;;1.30;;
74241;SDS011;62599;49.146;10.426;2023-02-21T16:33:26;2.53;;;1.35;;
74241;SDS011;62599;49.146;10.426;2023-02-21T16:35:52;2.20;;;1.02;;
74241;SDS011;62599;49.146;10.426;2023-02-21T16:38:19;2.17;;;1.42;;
74241;SDS011;62599;49.146;10.426;2023-02-21T16:40:45;3.10;;;1.55;;
74241;SDS011;62599;49.146;10.426;2023-02-21T16:43:19;1.17;;;0.80;;
74241;SDS011;62599;49.146;10.426;2023-02-21T16:45:47;1.65;;;1.13;;
74241;SDS011;62599;49.146;10.426;2023-02-21T16:48:16;2.17;;;1.58;;
74241;SDS011;62599;49.146;10.426;2023-02-21T16:50:45;2.28;;;1.55;;
74241;SDS011;62599;49.146;10.426;2023-02-21T16:53:12;3.17;;;1.70;;
74241;SDS011;62599;49.146;10.426;2023-02-21T16:55:39;2.22;;;1.63;;
74241;SDS011;62599;49.146;10.426;2023-02-21T16:58:31;2.78;;;1.33;;
74241;SDS011;62599;49.146;10.426;2023-02-21T17:00:56;2.60;;;1.23;;
74241;SDS011;62599;49.146;10.426;2023-02-21T17:03:29;2.60;;;1.38;;
74241;SDS011;62599;49.146;10.426;2023-02-21T17:05:58;4.72;;;2.63;;
74241;SDS011;62599;49.146;10.426;2023-02-21T17:08:27;3.63;;;2.15;;
74241;SDS011;62599;49.146;10.426;2023-02-21T17:10:53;22.00;;;11.50;;
74241;SDS011;62599;49.146;10.426;2023-02-21T17:13:20;14.10;;;6.72;;
74241;SDS011;62599;49.146;10.426;2023-02-21T17:15:45;8.00;;;4.03;;
74241;SDS011;62599;49.146;10.426;2023-02-21T17:18:11;8.18;;;3.70;;
74241;SDS011;62599;49.146;10.426;2023-02-21T17:20:37;4.75;;;2.25;;
74241;SDS011;62599;49.146;10.426;2023-02-21T17:23:02;5.15;;;2.20;;
74241;SDS011;62599;49.146;10.426;2023-02-21T17:25:28;16.83;;;5.70;;
74241;SDS011;62599;49.146;10.426;2023-02-21T17:27:54;2.65;;;1.92;;
74241;SDS011;62599;49.146;10.426;2023-02-21T17:30:23;16.63;;;5.57;;
74241;SDS011;62599;49.146;10.426;2023-02-21T17:32:49;8.40;;;2.60;;
74241;SDS011;62599;49.146;10.426;2023-02-21T17:35:16;7.00;;;2.55;;
74241;SDS011;62599;49.146;10.426;2023-02-21T17:37:43;4.25;;;2.35;;
74241;SDS011;62599;49.146;10.426;2023-02-21T17:40:11;12.18;;;4.70;;
74241;SDS011;62599;49.146;10.426;2023-02-21T17:42:47;12.90;;;7.47;;
74241;SDS011;62599;49.146;10.426;2023-02-21T17:45:15;21.27;;;7.63;;
74241;SDS011;62599;49.146;10.426;2023-02-21T17:47:42;34.28;;;12.52;;
74241;SDS011;62599;49.146;10.426;2023-02-21T17:50:07;32.60;;;9.33;;
74241;SDS011;62599;49.146;10.426;2023-02-21T17:52:33;23.52;;;10.63;;
74241;SDS011;62599;49.146;10.426;2023-02-21T17:54:58;29.60;;;10.30;;
74241;SDS011;62599;49.146;10.426;2023-02-21T17:57:26;25.85;;;8.52;;
74241;SDS011;62599;49.146;10.426;2023-02-21T17:59:53;12.15;;;6.32;;
74241;SDS011;62599;49.146;10.426;2023-02-21T18:02:19;13.00;;;4.30;;
74241;SDS011;62599;49.146;10.426;2023-02-21T18:04:44;12.88;;;6.28;;
74241;SDS011;62599;49.146;10.426;2023-02-21T18:07:12;18.58;;;7.35;;
74241;SDS011;62599;49.146;10.426;2023-02-21T18:09:38;19.48;;;7.22;;
74241;SDS011;62599;49.146;10.426;2023-02-21T18:12:03;18.10;;;5.77;;
74241;SDS011;62599;49.146;10.426;2023-02-21T18:14:29;21.30;;;6.35;;
74241;SDS011;62599;49.146;10.426;2023-02-21T18:16:59;14.20;;;5.55;;
74241;SDS011;62599;49.146;10.426;2023-02-21T18:19:24;6.95;;;2.72;;
74241;SDS011;62599;49.146;10.426;2023-02-21T18:21:50;9.57;;;4.05;;
74241;SDS011;62599;49.146;10.426;2023-02-21T18:24:16;13.88;;;4.72;;